Time;durP1;ratioP1;P1;durP2;ratioP2;P2;SDS_P1;SDS_P2;PMS_P1;PMS_P2;Temp;Humidity;BMP_temperature;BMP_pressure;BME280_temperature;BME280_humidity;BME280_pressure;Samples;Min_cycle;Max_cycle;Signal;HPM_P1;HPM_P2
2023/08/27 00:00:56;;;;;;;8.20;5.00;;;;;;;-146.27;96.89;82331.97;5045576;28;20512;-67
2023/08/27 00:03:21;;;;;;;8.57;4.80;;;;;;;-146.27;96.44;82291.78;5041774;28;20017;-66
2023/08/27 00:05:47;;;;;;;6.72;5.13;;;;;;;-146.27;96.46;82311.88;5047200;28;20108;-65
2023/08/27 00:08:12;;;;;;;8.80;4.85;;;;;;;-146.27;96.54;82311.88;5049777;28;20033;-67
2023/08/27 00:10:38;;;;;;;11.02;5.30;;;;;;;-146.27;96.10;82311.88;5047262;28;20435;-67
2023/08/27 00:13:03;;;;;;;9.00;5.07;;;;;;;-146.27;95.76;82303.84;5031265;28;20041;-68
2023/08/27 00:15:28;;;;;;;10.13;5.35;;;;;;;-146.27;96.18;82271.69;5034162;28;20037;-66
2023/08/27 00:17:54;;;;;;;9.05;5.40;;;;;;;-146.27;96.53;82352.03;5034595;28;20025;-67
2023/08/27 00:20:19;;;;;;;7.65;4.85;;;;;;;-146.27;96.20;82291.78;5045169;28;20025;-67
2023/08/27 00:22:45;;;;;;;8.27;5.80;;;;;;;-146.27;96.29;82315.88;5040968;28;20111;-67
2023/08/27 00:25:10;;;;;;;16.02;5.95;;;;;;;-146.27;95.74;82350.03;5043024;28;20025;-66
2023/08/27 00:27:36;;;;;;;8.63;5.95;;;;;;;-146.27;96.10;82327.94;5036451;28;20112;-67
2023/08/27 00:30:04;;;;;;;8.20;5.82;;;;;;;-146.27;96.12;82295.81;5041068;28;20044;-68
2023/08/27 00:32:33;;;;;;;10.18;5.90;;;;;;;-146.27;96.52;82311.88;5040685;28;20053;-66
2023/08/27 00:34:59;;;;;;;7.95;5.28;;;;;;;-146.27;97.09;82315.88;5040878;28;20370;-66
2023/08/27 00:37:25;;;;;;;9.18;6.15;;;;;;;-146.27;97.39;82307.84;5038395;28;20086;-67
2023/08/27 00:39:50;;;;;;;8.75;5.47;;;;;;;-146.27;97.21;82311.88;5047111;28;20067;-66
2023/08/27 00:42:16;;;;;;;16.75;6.32;;;;;;;-146.27;97.25;82319.91;5049499;28;20040;-67
2023/08/27 00:44:41;;;;;;;7.93;5.05;;;;;;;-146.27;96.30;82327.94;5046406;28;20035;-67
2023/08/27 00:47:08;;;;;;;12.98;5.45;;;;;;;-146.27;96.63;82305.84;5045605;28;20028;-66
2023/08/27 00:49:34;;;;;;;8.70;5.30;;;;;;;-146.27;96.16;82291.78;5060844;28;20025;-66
2023/08/27 00:52:01;;;;;;;7.85;4.70;;;;;;;-146.27;96.57;82327.94;5046215;28;20033;-66
2023/08/27 00:54:27;;;;;;;11.00;4.82;;;;;;;-146.27;95.94;82301.81;5044650;28;20036;-66
2023/08/27 00:56:53;;;;;;;6.85;4.35;;;;;;;-146.27;96.38;82340.00;5037822;28;20029;-66
2023/08/27 00:59:19;;;;;;;13.35;4.97;;;;;;;-146.27;96.18;82327.94;5045355;28;20032;-67
2023/08/27 01:01:45;;;;;;;8.35;4.28;;;;;;;-146.27;96.25;82325.94;5046306;28;20448;-68
2023/08/27 01:04:10;;;;;;;9.45;4.40;;;;;;;-146.27;95.79;82331.97;5047714;28;20032;-67
2023/08/27 01:06:36;;;;;;;8.73;4.00;;;;;;;-146.27;95.24;82364.09;5047782;28;20107;-67
2023/08/27 01:09:41;;;;;;;8.50;3.70;;;;;;;-146.27;94.84;82368.13;5047389;28;20420;-66
2023/08/27 01:12:19;;;;;;;8.00;4.25;;;;;;;-146.27;95.07;82335.97;5048642;28;20063;-67
2023/08/27 01:14:48;;;;;;;10.60;4.80;;;;;;;-146.27;95.92;82346.03;5044820;28;20123;-67
2023/08/27 01:17:16;;;;;;;5.57;3.92;;;;;;;-146.27;95.49;82380.16;5039359;28;20037;-67
2023/08/27 01:19:42;;;;;;;8.00;3.88;;;;;;;-146.27;95.90;82360.09;5044190;28;20021;-67
2023/08/27 01:22:07;;;;;;;6.20;3.97;;;;;;;-146.27;95.49;82360.09;5048959;28;20032;-67
2023/08/27 01:24:33;;;;;;;7.55;4.90;;;;;;;-146.27;95.86;82303.84;5043193;28;20028;-67
2023/08/27 01:27:11;;;;;;;6.85;4.20;;;;;;;-146.27;95.55;82348.03;5043148;28;20061;-66
2023/08/27 01:29:49;;;;;;;7.88;4.22;;;;;;;-146.27;94.61;82340.00;5040273;28;20028;-68
2023/08/27 01:32:28;;;;;;;7.18;3.90;;;;;;;-146.27;95.32;82368.13;5036839;28;20392;-67
2023/08/27 01:34:55;;;;;;;9.00;3.92;;;;;;;-146.27;94.72;82378.16;5035623;28;20670;-67
2023/08/27 01:37:21;;;;;;;8.20;3.83;;;;;;;-146.27;94.64;82360.09;5042150;28;20055;-66
2023/08/27 01:39:56;;;;;;;6.93;3.80;;;;;;;-146.27;94.37;82416.31;5039272;28;20036;-67
2023/08/27 01:42:21;;;;;;;7.03;4.20;;;;;;;-146.27;93.95;82388.22;5042716;28;20393;-67
2023/08/27 01:44:46;;;;;;;9.13;3.47;;;;;;;-146.27;93.99;82404.28;5043495;28;20048;-67
2023/08/27 01:47:12;;;;;;;10.18;4.18;;;;;;;-146.27;94.69;82368.13;5042297;28;20052;-66
2023/08/27 01:49:38;;;;;;;7.38;3.67;;;;;;;-146.27;94.20;82380.16;5046398;28;20037;-67
2023/08/27 01:52:03;;;;;;;12.00;4.63;;;;;;;-146.27;94.65;82342.00;5042075;28;20048;-67
2023/08/27 01:54:32;;;;;;;7.28;4.20;;;;;;;-146.27;94.53;82392.22;5042098;28;20028;-66
2023/08/27 01:56:57;;;;;;;13.65;3.88;;;;;;;-146.27;94.32;82384.19;5045737;28;20037;-67
2023/08/27 01:59:23;;;;;;;4.72;3.72;;;;;;;-146.27;94.32;82335.97;5038223;28;20363;-69
2023/08/27 02:01:48;;;;;;;6.72;3.38;;;;;;;-146.27;94.00;82376.16;5045632;28;20022;-65
2023/08/27 02:04:13;;;;;;;7.40;3.83;;;;;;;-146.27;93.96;82342.00;5038294;28;20025;-68
2023/08/27 02:06:39;;;;;;;7.07;3.50;;;;;;;-146.27;94.08;82340.00;5049670;28;20114;-66
2023/08/27 02:09:04;;;;;;;7.55;4.20;;;;;;;-146.27;93.81;82374.13;5048640;28;20029;-67
2023/08/27 02:11:30;;;;;;;8.48;3.72;;;;;;;-146.27;94.03;82350.03;5044178;28;20023;-67
2023/08/27 02:13:55;;;;;;;9.57;4.38;;;;;;;-146.27;94.05;82404.28;5040362;28;20045;-67
2023/08/27 02:16:21;;;;;;;9.73;4.38;;;;;;;-146.27;93.78;82376.16;5035646;28;20036;-67
2023/08/27 02:18:46;;;;;;;7.28;4.40;;;;;;;-146.27;93.83;82362.09;5047609;28;20025;-67
2023/08/27 02:21:11;;;;;;;8.75;3.85;;;;;;;-146.27;93.88;82380.16;5038792;28;20108;-67
2023/08/27 02:23:37;;;;;;;8.07;4.60;;;;;;;-146.27;94.26;82358.06;5051610;28;20059;-67
2023/08/27 02:26:03;;;;;;;11.77;4.70;;;;;;;-146.27;94.13;82360.09;5054316;28;20053;-68
2023/08/27 02:28:28;;;;;;;10.98;5.25;;;;;;;-146.27;93.92;82327.94;5050415;28;20024;-68
2023/08/27 02:30:55;;;;;;;7.80;4.55;;;;;;;-146.27;93.95;82360.09;5037137;28;20021;-67
2023/08/27 02:33:22;;;;;;;7.07;4.15;;;;;;;-146.27;94.13;82364.09;5038981;28;20497;-66
2023/08/27 02:35:47;;;;;;;10.70;4.47;;;;;;;-146.27;94.31;82340.00;5049998;28;20029;-67
2023/08/27 02:38:13;;;;;;;9.05;4.57;;;;;;;-146.27;94.26;82327.94;5049100;28;20547;-67
2023/08/27 02:40:39;;;;;;;8.80;4.35;;;;;;;-146.27;94.07;82281.75;5050568;28;20029;-67
2023/08/27 02:43:05;;;;;;;11.52;4.38;;;;;;;-146.27;94.33;82340.00;5045967;28;20013;-65
2023/08/27 02:45:30;;;;;;;9.50;4.22;;;;;;;-146.27;94.45;82396.25;5048917;28;20189;-67
2023/08/27 02:47:55;;;;;;;9.52;4.45;;;;;;;-146.27;94.46;82366.09;5044384;28;20021;-67
2023/08/27 02:50:21;;;;;;;8.40;4.63;;;;;;;-146.27;94.57;82315.88;5043697;28;20035;-67
2023/08/27 02:52:46;;;;;;;12.30;4.65;;;;;;;-146.27;94.32;82319.91;5046553;28;20048;-67
2023/08/27 02:55:12;;;;;;;11.02;4.65;;;;;;;-146.27;94.59;82315.88;5048714;28;20095;-69
2023/08/27 02:57:37;;;;;;;11.38;5.35;;;;;;;-146.27;95.02;82325.94;5042270;28;20043;-66
2023/08/27 03:00:04;;;;;;;14.98;5.45;;;;;;;-146.27;94.81;82305.84;5049286;28;20071;-67
2023/08/27 03:02:30;;;;;;;10.98;5.28;;;;;;;-146.27;94.73;82344.00;5046827;28;20036;-67
2023/08/27 03:04:56;;;;;;;11.48;4.57;;;;;;;-146.27;94.60;82311.88;5048531;28;20056;-67
2023/08/27 03:07:22;;;;;;;8.25;4.65;;;;;;;-146.27;95.59;82303.84;5048478;28;20044;-67
2023/08/27 03:09:48;;;;;;;13.18;4.45;;;;;;;-146.27;95.70;82285.75;5041775;28;20124;-67
2023/08/27 03:12:13;;;;;;;10.98;4.57;;;;;;;-146.27;95.34;82327.94;5050177;28;20115;-67
2023/08/27 03:14:39;;;;;;;17.00;4.65;;;;;;;-146.27;94.77;82372.13;5046133;28;20124;-67
2023/08/27 03:17:04;;;;;;;11.75;3.28;;;;;;;-146.27;93.60;82394.22;5041027;28;20135;-66
2023/08/27 03:19:30;;;;;;;16.00;2.47;;;;;;;-146.27;93.01;82402.25;5047372;28;20024;-67
2023/08/27 03:21:55;;;;;;;18.58;2.33;;;;;;;-146.27;93.18;82440.44;5048095;28;20033;-66
2023/08/27 03:24:20;;;;;;;4.72;1.42;;;;;;;-146.27;93.35;82492.66;5045508;28;20024;-66
2023/08/27 03:26:46;;;;;;;9.75;1.75;;;;;;;-146.27;93.97;82528.81;5036607;28;20381;-66
2023/08/27 03:29:11;;;;;;;9.90;1.85;;;;;;;-146.27;94.83;82500.69;5044028;28;20031;-67
2023/08/27 03:31:36;;;;;;;6.05;1.20;;;;;;;-146.27;95.82;82532.84;5044126;28;20168;-67
2023/08/27 03:34:02;;;;;;;3.00;0.90;;;;;;;-146.27;97.08;82577.03;5046954;28;20051;-66
2023/08/27 03:36:28;;;;;;;3.05;1.08;;;;;;;-146.27;97.90;82589.09;5039877;28;20032;-65
2023/08/27 03:38:54;;;;;;;1.67;0.80;;;;;;;-146.27;97.57;82589.09;5048277;28;20025;-65
2023/08/27 03:41:19;;;;;;;3.13;1.30;;;;;;;-146.27;97.91;82615.22;5041416;28;20028;-67
2023/08/27 03:43:45;;;;;;;3.45;1.02;;;;;;;-146.27;98.29;82649.34;5048719;28;20047;-66
2023/08/27 03:46:10;;;;;;;10.27;1.95;;;;;;;-146.27;99.25;82649.34;5041523;28;20017;-67
2023/08/27 03:48:35;;;;;;;9.40;3.03;;;;;;;-146.27;99.54;82647.34;5046203;28;20033;-67
2023/08/27 03:51:01;;;;;;;3.20;1.05;;;;;;;-146.27;100.00;82665.44;5041354;28;20017;-66
2023/08/27 03:53:26;;;;;;;5.68;1.13;;;;;;;-146.27;100.00;82641.31;5043007;28;20427;-67
2023/08/27 03:55:53;;;;;;;11.02;2.05;;;;;;;-146.27;100.00;82663.41;5039203;28;20460;-67
2023/08/27 03:58:18;;;;;;;5.03;1.13;;;;;;;-146.27;100.00;82625.25;5044832;28;20037;-66
2023/08/27 04:00:46;;;;;;;6.57;1.65;;;;;;;-146.27;100.00;82625.25;5033748;28;20032;-67
2023/08/27 04:03:12;;;;;;;9.57;1.48;;;;;;;-146.27;100.00;82663.41;5044730;28;20017;-67
2023/08/27 04:05:38;;;;;;;6.18;1.30;;;;;;;-146.27;100.00;82643.31;5040007;28;20037;-67
2023/08/27 04:08:03;;;;;;;3.65;1.60;;;;;;;-146.27;100.00;82669.44;5044232;28;20481;-67
2023/08/27 04:10:29;;;;;;;2.78;1.15;;;;;;;-146.27;100.00;82693.56;5045576;28;20178;-67
2023/08/27 04:12:56;;;;;;;3.30;0.82;;;;;;;-146.27;99.92;82689.53;5042950;28;20527;-66
2023/08/27 04:15:21;;;;;;;8.90;1.52;;;;;;;-146.27;100.00;82685.50;5048272;28;20452;-66
2023/08/27 04:17:47;;;;;;;2.58;0.82;;;;;;;-146.27;99.08;82661.41;5041400;28;20120;-66
2023/08/27 04:20:12;;;;;;;4.65;1.42;;;;;;;-146.27;99.19;82685.50;5041947;28;20080;-64
2023/08/27 04:22:37;;;;;;;2.70;1.08;;;;;;;-146.27;99.31;82685.50;5050752;28;20151;-66
2023/08/27 04:25:03;;;;;;;8.43;1.42;;;;;;;-146.27;99.60;82691.53;5043851;28;20028;-66
2023/08/27 04:27:29;;;;;;;3.60;0.95;;;;;;;-146.27;100.00;82685.50;5035239;28;20409;-66
2023/08/27 04:29:54;;;;;;;5.28;1.65;;;;;;;-146.27;100.00;82699.59;5035246;28;20076;-66
2023/08/27 04:32:19;;;;;;;7.13;1.20;;;;;;;-146.27;100.00;82693.56;5043308;28;20028;-66
2023/08/27 04:34:45;;;;;;;3.75;1.30;;;;;;;-146.27;100.00;82671.47;5038558;28;20021;-66
2023/08/27 04:37:10;;;;;;;8.15;1.27;;;;;;;-146.27;100.00;82673.47;5043052;28;20120;-66
2023/08/27 04:39:35;;;;;;;11.10;2.22;;;;;;;-146.27;100.00;82657.41;5039558;28;20020;-67
2023/08/27 04:42:01;;;;;;;5.95;1.38;;;;;;;-146.27;100.00;82649.34;5046852;28;20059;-66
2023/08/27 04:44:26;;;;;;;2.50;1.23;;;;;;;-146.27;100.00;82677.47;5048760;28;20110;-66
2023/08/27 04:46:53;;;;;;;6.60;1.67;;;;;;;-146.27;100.00;82641.31;5047667;28;20048;-66
2023/08/27 04:49:19;;;;;;;4.53;1.52;;;;;;;-146.27;100.00;82599.13;5043827;28;20021;-66
2023/08/27 04:51:44;;;;;;;3.85;1.40;;;;;;;-146.27;100.00;82629.28;5044029;28;20033;-66
2023/08/27 04:54:09;;;;;;;6.47;1.60;;;;;;;-146.27;100.00;82653.38;5037041;28;20047;-66
2023/08/27 04:56:34;;;;;;;7.85;1.75;;;;;;;-146.27;100.00;82637.31;5036292;28;20037;-66
2023/08/27 04:59:00;;;;;;;3.40;1.85;;;;;;;-146.27;100.00;82643.31;5047992;28;20020;-66
2023/08/27 05:01:25;;;;;;;5.20;1.40;;;;;;;-146.27;100.00;82657.41;5065663;28;20036;-66
2023/08/27 05:03:51;;;;;;;4.43;1.23;;;;;;;-146.27;100.00;82645.34;5050732;28;20017;-66
2023/08/27 05:06:16;;;;;;;2.88;1.20;;;;;;;-146.27;100.00;82649.34;5046400;28;20036;-66
2023/08/27 05:08:42;;;;;;;10.05;3.33;;;;;;;-146.27;100.00;82653.38;5033512;28;20076;-65
2023/08/27 05:11:07;;;;;;;6.43;2.10;;;;;;;-146.27;100.00;82637.31;5034493;28;20053;-66
2023/08/27 05:13:33;;;;;;;4.65;1.60;;;;;;;-146.27;100.00;82661.41;5034848;28;20077;-66
2023/08/27 05:15:58;;;;;;;7.97;1.95;;;;;;;-146.27;100.00;82645.34;5033985;28;20025;-67
2023/08/27 05:18:24;;;;;;;5.18;1.55;;;;;;;-146.27;100.00;82659.41;5033460;28;20021;-68
2023/08/27 05:20:49;;;;;;;7.43;1.55;;;;;;;-146.27;100.00;82713.66;5031627;28;20888;-68
2023/08/27 05:23:14;;;;;;;4.00;1.75;;;;;;;-146.27;100.00;82659.41;5034054;28;20024;-67
2023/08/27 05:25:40;;;;;;;7.03;1.42;;;;;;;-146.27;100.00;82653.38;5034396;28;20021;-68
2023/08/27 05:28:05;;;;;;;6.65;1.83;;;;;;;-146.27;100.00;82673.47;5030738;28;20037;-69
2023/08/27 05:30:30;;;;;;;6.22;1.60;;;;;;;-146.27;100.00;82613.19;5051204;28;20032;-68
2023/08/27 05:32:56;;;;;;;5.55;1.50;;;;;;;-146.27;100.00;82713.66;5048757;28;20056;-68
2023/08/27 05:35:24;;;;;;;3.15;1.70;;;;;;;-146.27;100.00;82643.31;5050187;28;20029;-68
2023/08/27 05:37:50;;;;;;;4.65;1.25;;;;;;;-146.27;100.00;82649.34;5051438;28;20117;-67
2023/08/27 05:40:15;;;;;;;8.38;1.58;;;;;;;-146.27;100.00;82661.41;5048619;28;20048;-68
2023/08/27 05:42:41;;;;;;;3.38;1.15;;;;;;;-146.27;99.60;82631.28;5045230;28;20459;-68
2023/08/27 05:45:07;;;;;;;4.18;1.33;;;;;;;-146.27;100.00;82637.31;5041989;28;20070;-68
2023/08/27 05:47:33;;;;;;;2.17;1.30;;;;;;;-146.27;100.00;82657.41;5051786;28;20487;-69
2023/08/27 05:49:58;;;;;;;8.50;1.30;;;;;;;-146.27;100.00;82649.34;5050839;28;20032;-68
2023/08/27 05:52:23;;;;;;;3.75;1.35;;;;;;;-146.27;99.86;82633.28;5045544;28;20384;-68
2023/08/27 05:54:49;;;;;;;4.13;1.23;;;;;;;-146.27;100.00;82619.22;5034301;28;20473;-68
2023/08/27 05:57:14;;;;;;;1.80;1.13;;;;;;;-146.27;99.24;82651.38;5046187;28;20064;-68
2023/08/27 05:59:40;;;;;;;4.93;1.40;;;;;;;-146.27;100.00;82552.94;5050511;28;20029;-68
2023/08/27 06:02:05;;;;;;;3.05;1.50;;;;;;;-146.27;99.57;82564.97;5046443;28;20040;-68
2023/08/27 06:04:31;;;;;;;4.15;1.30;;;;;;;-146.27;99.46;82601.16;5058679;28;20017;-68
2023/08/27 06:06:56;;;;;;;3.70;1.50;;;;;;;-146.27;99.67;82581.06;5042905;28;20396;-69
2023/08/27 06:09:22;;;;;;;1.17;1.00;;;;;;;-146.27;99.46;82520.78;5041035;28;20081;-68
2023/08/27 06:11:47;;;;;;;5.40;1.33;;;;;;;-146.27;99.19;82540.88;5039537;28;20400;-68
2023/08/27 06:14:13;;;;;;;1.50;1.20;;;;;;;-146.27;98.58;82548.91;5045658;28;20049;-68
2023/08/27 06:16:38;;;;;;;8.77;1.75;;;;;;;-146.27;98.49;82528.81;5043796;28;20388;-68
2023/08/27 06:19:04;;;;;;;5.25;1.98;;;;;;;-146.27;98.76;82480.59;5041797;28;20052;-72
2023/08/27 06:21:29;;;;;;;3.55;2.00;;;;;;;-146.27;98.76;82498.69;5037971;28;20056;-72
2023/08/27 06:23:55;;;;;;;6.72;2.65;;;;;;;-146.27;98.65;82484.63;5042397;28;20104;-72
2023/08/27 06:26:21;;;;;;;3.80;2.70;;;;;;;-146.27;98.80;82422.34;5047210;28;20025;-72
2023/08/27 06:28:47;;;;;;;5.65;2.90;;;;;;;-146.27;98.45;82440.44;5048263;28;20025;-72
2023/08/27 06:31:13;;;;;;;6.32;4.03;;;;;;;-146.27;98.23;82448.47;5033974;28;20037;-72
2023/08/27 06:33:38;;;;;;;5.72;3.50;;;;;;;-146.27;98.50;82420.34;5041043;28;20650;-72
2023/08/27 06:36:05;;;;;;;8.48;4.68;;;;;;;-146.27;98.32;82384.19;5044792;28;20017;-72
2023/08/27 06:38:30;;;;;;;9.90;5.22;;;;;;;-146.27;98.55;82436.41;5040150;28;20732;-71
2023/08/27 06:40:56;;;;;;;8.45;5.57;;;;;;;-146.27;98.72;82390.22;5045615;28;20029;-72
2023/08/27 06:43:21;;;;;;;10.82;5.47;;;;;;;-146.27;98.29;82374.13;5038100;28;20029;-72
2023/08/27 06:45:46;;;;;;;7.95;5.75;;;;;;;-146.27;98.36;82348.03;5053919;28;20120;-71
2023/08/27 06:48:13;;;;;;;13.98;8.20;;;;;;;-146.27;98.78;82364.09;5041905;28;20036;-70
2023/08/27 06:50:38;;;;;;;12.68;6.93;;;;;;;-146.27;99.04;82344.00;5038378;28;20473;-72
2023/08/27 06:53:04;;;;;;;14.23;7.78;;;;;;;-146.27;99.00;82392.22;5051792;28;20108;-69
2023/08/27 06:55:30;;;;;;;12.27;7.93;;;;;;;-146.27;99.00;82380.16;5044620;28;20035;-70
2023/08/27 06:57:55;;;;;;;12.60;8.65;;;;;;;-146.27;98.74;82299.81;5051016;28;20036;-70
2023/08/27 07:00:20;;;;;;;18.73;8.18;;;;;;;-146.27;99.16;82327.94;5042305;28;20443;-72
2023/08/27 07:02:46;;;;;;;14.00;8.35;;;;;;;-146.27;99.71;82352.03;5050439;28;20020;-71
2023/08/27 07:05:11;;;;;;;13.05;6.90;;;;;;;-146.27;98.66;82376.16;5040762;28;20105;-71
2023/08/27 07:07:40;;;;;;;12.18;6.63;;;;;;;-146.27;98.38;82295.81;5033727;28;20079;-72
2023/08/27 07:10:07;;;;;;;18.10;7.60;;;;;;;-146.27;97.96;82267.69;5053047;28;20043;-71
2023/08/27 07:12:33;;;;;;;11.13;4.90;;;;;;;-146.27;96.87;82323.91;5047887;28;20049;-70
2023/08/27 07:14:59;;;;;;;6.43;3.42;;;;;;;-146.27;95.65;82412.31;5043851;28;20133;-70
2023/08/27 07:17:25;;;;;;;10.20;3.78;;;;;;;-146.27;95.31;82337.97;5049202;28;20040;-71
2023/08/27 07:19:50;;;;;;;4.72;2.85;;;;;;;-146.27;93.97;82420.34;5043949;28;20041;-71
2023/08/27 07:22:15;;;;;;;8.10;2.90;;;;;;;-146.27;94.61;82400.25;5039581;28;20507;-71
2023/08/27 07:24:42;;;;;;;6.85;3.00;;;;;;;-146.27;94.70;82430.38;5050150;28;20024;-72
2023/08/27 07:27:08;;;;;;;5.60;2.17;;;;;;;-146.27;94.50;82404.28;5041307;28;20037;-71
2023/08/27 07:29:33;;;;;;;4.22;2.22;;;;;;;-146.27;94.47;82380.16;5055523;28;20689;-72
2023/08/27 07:31:58;;;;;;;4.05;2.20;;;;;;;-146.27;95.29;82362.09;5034610;28;20021;-72
2023/08/27 07:34:24;;;;;;;4.85;2.10;;;;;;;-146.27;94.27;82372.13;5048328;28;20029;-69
2023/08/27 07:36:49;;;;;;;6.82;1.95;;;;;;;-146.27;93.71;82309.88;5036314;28;20091;-70
2023/08/27 07:39:15;;;;;;;3.55;1.40;;;;;;;-146.27;92.90;82331.97;5049594;28;20105;-68
2023/08/27 07:41:40;;;;;;;4.30;2.20;;;;;;;-146.27;93.33;82243.56;5044845;28;20107;-69
2023/08/27 07:44:05;;;;;;;4.57;1.50;;;;;;;-146.27;93.39;82307.84;5042998;28;20013;-68
2023/08/27 07:46:32;;;;;;;4.88;1.48;;;;;;;-146.27;93.76;82269.69;5046562;28;20021;-68
2023/08/27 07:48:57;;;;;;;5.07;1.52;;;;;;;-146.27;91.58;82317.91;5046621;28;20057;-68
2023/08/27 07:51:22;;;;;;;2.53;1.10;;;;;;;-146.27;91.66;82281.75;5049030;28;20116;-67
2023/08/27 07:53:48;;;;;;;3.45;1.13;;;;;;;-146.27;92.08;82368.13;5047566;28;20019;-68
2023/08/27 07:56:13;;;;;;;1.92;0.90;;;;;;;-146.27;91.34;82299.81;5051513;28;20061;-68
2023/08/27 07:58:38;;;;;;;4.28;1.20;;;;;;;-146.27;91.34;82344.00;5037642;28;20028;-68
2023/08/27 08:01:04;;;;;;;1.85;1.20;;;;;;;-146.27;91.12;82340.00;5041707;28;20021;-68
2023/08/27 08:03:30;;;;;;;2.15;0.93;;;;;;;-146.27;90.01;82368.13;5042972;28;20021;-69
2023/08/27 08:05:55;;;;;;;4.82;1.27;;;;;;;-146.27;90.21;82388.22;5058947;28;20495;-68
2023/08/27 08:08:20;;;;;;;3.38;1.30;;;;;;;-146.27;90.43;82368.13;5046657;28;20029;-70
2023/08/27 08:10:46;;;;;;;3.78;0.98;;;;;;;-146.27;89.58;82388.22;5037266;28;20025;-68
2023/08/27 08:13:11;;;;;;;4.95;1.10;;;;;;;-146.27;89.45;82364.09;5045649;28;20037;-68
2023/08/27 08:15:37;;;;;;;3.78;1.10;;;;;;;-146.27;87.81;82408.28;5043202;28;20022;-69
2023/08/27 08:18:02;;;;;;;4.57;1.25;;;;;;;-146.27;88.75;82380.16;5044316;28;20071;-68
2023/08/27 08:20:28;;;;;;;3.40;0.93;;;;;;;-146.27;89.06;82400.25;5040619;28;20986;-70
2023/08/27 08:22:53;;;;;;;1.40;0.90;;;;;;;-146.27;88.78;82390.22;5043287;28;20033;-68
2023/08/27 08:25:22;;;;;;;1.92;0.90;;;;;;;-146.27;89.51;82414.31;5048692;28;20551;-69
2023/08/27 08:27:47;;;;;;;3.38;0.70;;;;;;;-146.27;88.18;82472.56;5064847;28;20033;-68
2023/08/27 08:30:13;;;;;;;2.45;0.95;;;;;;;-146.27;88.60;82480.59;5043496;28;20032;-70
2023/08/27 08:32:38;;;;;;;3.67;1.05;;;;;;;-146.27;88.07;82430.38;5040969;28;20032;-69
2023/08/27 08:35:04;;;;;;;4.47;0.65;;;;;;;-146.27;88.70;82456.50;5049381;28;20104;-69
2023/08/27 08:37:29;;;;;;;8.05;0.90;;;;;;;-146.27;88.45;82378.16;5035780;28;20023;-68
2023/08/27 08:39:55;;;;;;;3.67;1.02;;;;;;;-146.27;87.31;82398.25;5038945;28;20044;-68
2023/08/27 08:42:31;;;;;;;1.52;0.70;;;;;;;-146.27;85.15;82444.44;5040519;28;20036;-68
2023/08/27 08:45:05;;;;;;;0.52;0.50;;;;;;;-146.27;85.46;82356.06;5044674;28;20477;-69
2023/08/27 08:47:35;;;;;;;0.70;0.70;;;;;;;-146.27;85.97;82348.03;5035342;28;20025;-72
2023/08/27 08:50:04;;;;;;;5.20;0.90;;;;;;;-146.27;85.12;82378.16;5045200;28;20025;-72
2023/08/27 08:52:35;;;;;;;4.82;0.80;;;;;;;-146.27;84.95;82412.31;5042400;28;20098;-72
2023/08/27 08:55:04;;;;;;;1.27;0.60;;;;;;;-146.27;84.04;82388.22;5038117;28;20033;-71
2023/08/27 08:57:32;;;;;;;2.08;0.50;;;;;;;-146.27;82.68;82223.47;5039890;28;20658;-72
2023/08/27 08:59:58;;;;;;;1.38;0.57;;;;;;;-146.27;84.11;82261.66;5053062;28;20420;-72
2023/08/27 09:02:24;;;;;;;1.45;0.57;;;;;;;-146.27;84.28;82181.31;5038389;28;20083;-72
2023/08/27 09:04:52;;;;;;;1.38;0.60;;;;;;;-146.27;82.12;82261.66;5038872;28;20024;-71
2023/08/27 09:07:18;;;;;;;1.52;0.60;;;;;;;-146.27;82.08;82255.63;5034369;28;20051;-71
2023/08/27 09:09:45;;;;;;;3.00;0.60;;;;;;;-146.27;81.26;82273.72;5045946;28;20385;-71
2023/08/27 09:12:11;;;;;;;1.10;0.70;;;;;;;-146.27;82.22;82237.53;5046015;28;21369;-71
2023/08/27 09:14:38;;;;;;;1.67;0.52;;;;;;;-146.27;82.18;82331.97;5053737;28;20053;-71
2023/08/27 09:17:05;;;;;;;1.10;0.80;;;;;;;-146.27;82.30;82352.03;5040852;28;20526;-71
2023/08/27 09:19:30;;;;;;;1.60;0.57;;;;;;;-146.27;82.79;82366.09;5051865;28;20112;-71
2023/08/27 09:21:56;;;;;;;3.03;0.73;;;;;;;-146.27;82.04;82340.00;5048177;28;20540;-72
2023/08/27 09:24:21;;;;;;;2.00;0.80;;;;;;;-146.27;81.38;82392.22;5054848;28;20048;-71
2023/08/27 09:26:46;;;;;;;0.80;0.50;;;;;;;-146.27;81.73;82440.44;5040111;28;20056;-71
2023/08/27 09:29:12;;;;;;;1.60;0.52;;;;;;;-146.27;82.37;82380.16;5052272;28;20029;-71
2023/08/27 09:31:40;;;;;;;2.80;0.70;;;;;;;-146.27;82.83;82508.72;5072772;28;20523;-71
2023/08/27 09:34:06;;;;;;;1.60;0.63;;;;;;;-146.27;83.32;82392.22;5059046;28;20024;-71
2023/08/27 09:36:33;;;;;;;1.90;0.70;;;;;;;-146.27;83.93;82454.50;5055511;28;20028;-73
2023/08/27 09:39:07;;;;;;;1.80;0.75;;;;;;;-146.27;84.39;82504.72;5059470;28;20090;-72
2023/08/27 09:41:36;;;;;;;1.58;0.77;;;;;;;-146.27;84.76;82504.72;5040868;28;20481;-73
2023/08/27 09:44:02;;;;;;;1.15;0.70;;;;;;;-146.27;86.17;82556.94;5043672;28;20021;-73
2023/08/27 09:46:27;;;;;;;2.15;0.70;;;;;;;-146.27;86.86;82550.91;5045161;28;20088;-72
2023/08/27 09:49:08;;;;;;;3.00;0.68;;;;;;;-146.27;87.61;82623.25;5048206;28;20044;-72
2023/08/27 09:51:38;;;;;;;1.52;0.70;;;;;;;-146.27;87.86;82599.13;5030175;28;20037;-72
2023/08/27 09:54:20;;;;;;;1.15;0.73;;;;;;;-146.27;88.86;82621.22;5029646;28;20025;-73
2023/08/27 09:56:50;;;;;;;0.67;0.53;;;;;;;-146.27;88.76;82597.13;5034391;28;20064;-71
2023/08/27 09:59:17;;;;;;;2.90;1.10;;;;;;;-146.27;88.87;82621.22;5044848;28;20108;-70
2023/08/27 10:01:48;;;;;;;1.20;0.80;;;;;;;-146.27;88.80;82665.44;5037463;28;20021;-72
2023/08/27 10:04:14;;;;;;;2.28;0.93;;;;;;;-146.27;88.96;82595.13;5036787;28;20512;-72
2023/08/27 10:06:39;;;;;;;3.25;1.05;;;;;;;-146.27;89.47;82625.25;5033475;28;20017;-72
2023/08/27 10:09:05;;;;;;;4.13;0.75;;;;;;;-146.27;90.69;82639.31;5033961;28;20037;-73
2023/08/27 10:11:33;;;;;;;4.22;1.15;;;;;;;-146.27;91.01;82627.25;5029397;28;20465;-76
2023/08/27 10:13:59;;;;;;;1.90;1.10;;;;;;;-146.27;91.09;82589.09;5040304;28;20079;-75
2023/08/27 10:16:27;;;;;;;0.90;0.50;;;;;;;-146.27;90.69;82607.16;5040421;28;20084;-76
2023/08/27 10:18:54;;;;;;;1.67;0.90;;;;;;;-146.27;91.48;82629.28;5037059;28;20040;-75
2023/08/27 10:21:19;;;;;;;1.35;0.80;;;;;;;-146.27;92.04;82605.16;5040950;28;20040;-74
2023/08/27 10:23:46;;;;;;;2.10;0.95;;;;;;;-146.27;90.98;82645.34;5035993;28;20389;-75
2023/08/27 10:26:14;;;;;;;6.07;1.42;;;;;;;-146.27;90.74;82621.22;5045742;28;20032;-74
2023/08/27 10:28:39;;;;;;;4.65;0.98;;;;;;;-146.27;91.41;82619.22;5037872;28;20060;-75
2023/08/27 10:31:05;;;;;;;2.25;1.05;;;;;;;-146.27;90.96;82599.13;5032770;28;20056;-76
2023/08/27 10:33:31;;;;;;;1.90;0.90;;;;;;;-146.27;91.04;82526.81;5041616;28;20029;-76
2023/08/27 10:36:01;;;;;;;3.95;0.80;;;;;;;-146.27;91.53;82538.88;5047219;28;20499;-76
2023/08/27 10:38:29;;;;;;;2.13;0.90;;;;;;;-146.27;90.43;82512.75;5043416;28;20131;-76
2023/08/27 10:40:54;;;;;;;1.90;0.95;;;;;;;-146.27;90.01;82504.72;5049051;28;20025;-75
2023/08/27 10:43:21;;;;;;;2.40;0.82;;;;;;;-146.27;89.48;82440.44;5051755;28;20031;-74
2023/08/27 10:45:50;;;;;;;7.63;1.67;;;;;;;-146.27;89.23;82432.41;5043786;28;20511;-75
2023/08/27 10:48:15;;;;;;;3.58;1.02;;;;;;;-146.27;88.67;82442.44;5041729;28;20133;-76
2023/08/27 10:50:46;;;;;;;2.33;1.00;;;;;;;-146.27;89.64;82384.19;5047484;28;20489;-75
2023/08/27 10:53:13;;;;;;;5.25;1.10;;;;;;;-146.27;89.28;82340.00;5032769;28;20033;-75
2023/08/27 10:55:40;;;;;;;2.90;0.90;;;;;;;-146.27;89.28;82305.84;5043757;28;20409;-75
2023/08/27 10:58:16;;;;;;;2.08;0.88;;;;;;;-146.27;87.69;82295.81;5049422;28;20028;-77
2023/08/27 11:01:07;;;;;;;3.97;0.93;;;;;;;-146.27;87.76;82209.44;5045639;28;20083;-76
2023/08/27 11:03:57;;;;;;;4.80;1.05;;;;;;;-146.27;86.45;82165.22;5043525;28;20076;-73
2023/08/27 11:06:41;;;;;;;1.70;0.73;;;;;;;-146.27;86.21;82070.81;5036901;28;20037;-74
2023/08/27 11:09:29;;;;;;;2.20;0.77;;;;;;;-146.27;84.49;82096.94;5039233;28;20033;-74
2023/08/27 11:11:59;;;;;;;4.78;0.80;;;;;;;-146.27;82.90;82127.06;5029850;28;20108;-74